Time;durP1;ratioP1;P1;durP2;ratioP2;P2;SDS_P1;SDS_P2;PMS_P1;PMS_P2;Temp;Humidity;BMP_temperature;BMP_pressure;BME280_temperature;BME280_humidity;BME280_pressure;Samples;Min_cycle;Max_cycle;Signal;HPM_P1;HPM_P2
2022/06/20 00:00:41;;;;;;;5.22;2.33;;;;;;;19.23;59.40;97745.02;1815732;78;21238;-71
2022/06/20 00:03:09;;;;;;;3.17;1.82;;;;;;;19.20;59.59;97749.80;1816941;77;21462;-58
2022/06/20 00:05:40;;;;;;;4.05;2.37;;;;;;;19.16;59.81;97748.36;1774062;78;20911;-66
2022/06/20 00:08:06;;;;;;;5.40;2.20;;;;;;;19.13;59.65;97748.49;1827337;78;20888;-62
2022/06/20 00:10:34;;;;;;;6.75;2.10;;;;;;;19.09;59.45;97763.13;1827339;78;20923;-62
2022/06/20 00:13:01;;;;;;;6.15;2.20;;;;;;;19.05;59.56;97761.66;1827243;78;21097;-66
2022/06/20 00:15:34;;;;;;;9.53;2.10;;;;;;;19.03;59.59;97758.52;1771855;78;20952;-69
2022/06/20 00:18:04;;;;;;;8.08;1.90;;;;;;;19.01;59.06;97752.66;1827498;78;20825;-63
2022/06/20 00:20:31;;;;;;;4.45;1.82;;;;;;;19.04;59.25;97750.60;1827243;78;20919;-67
2022/06/20 00:22:58;;;;;;;4.15;1.75;;;;;;;19.07;58.58;97744.48;1827374;78;20856;-61
2022/06/20 00:25:25;;;;;;;5.78;2.05;;;;;;;19.10;58.68;97741.64;1827261;78;21169;-62
2022/06/20 00:27:53;;;;;;;5.20;1.80;;;;;;;19.12;58.77;97740.71;1827255;78;20857;-63
2022/06/20 00:30:21;;;;;;;4.95;2.05;;;;;;;19.13;58.53;97753.92;1827383;78;20817;-61
2022/06/20 00:32:48;;;;;;;7.15;1.95;;;;;;;19.18;58.47;97738.50;1827278;78;21403;-70
2022/06/20 00:35:15;;;;;;;4.03;1.90;;;;;;;19.22;58.36;97741.52;1827483;78;21456;-61
2022/06/20 00:37:42;;;;;;;3.77;1.80;;;;;;;19.26;58.30;97745.69;1827264;78;22109;-61
2022/06/20 00:40:23;;;;;;;5.78;2.12;;;;;;;19.28;58.31;97744.20;1827189;78;20829;-70
2022/06/20 00:42:50;;;;;;;4.50;1.92;;;;;;;19.29;58.45;97743.63;1827271;78;20892;-63
2022/06/20 00:45:18;;;;;;;5.53;2.15;;;;;;;19.28;58.35;97743.41;1827224;78;20943;-70
2022/06/20 00:47:44;;;;;;;4.95;2.08;;;;;;;19.28;58.48;97740.69;1827263;78;20984;-70
2022/06/20 00:50:23;;;;;;;6.00;2.10;;;;;;;19.28;58.51;97740.69;1827366;78;21093;-68
2022/06/20 00:53:15;;;;;;;5.05;1.85;;;;;;;19.28;58.63;97735.26;1827202;78;20907;-66
2022/06/20 00:55:49;;;;;;;8.40;1.80;;;;;;;19.28;58.63;97740.69;1827473;78;21383;-63
2022/06/20 00:58:47;;;;;;;4.17;2.20;;;;;;;19.24;58.77;97738.47;1827334;78;20935;-69
2022/06/20 01:01:16;;;;;;;4.90;1.85;;;;;;;19.19;58.93;97727.31;1827287;78;21035;-61
2022/06/20 01:03:47;;;;;;;3.05;1.70;;;;;;;19.16;59.08;97728.00;1825207;78;21104;-69
2022/06/20 01:06:22;;;;;;;5.42;1.95;;;;;;;19.11;59.27;97729.06;1815856;79;20969;-69
2022/06/20 01:08:53;;;;;;;5.33;2.00;;;;;;;19.06;59.50;97733.95;1815997;78;20865;-68
2022/06/20 01:11:30;;;;;;;5.25;1.85;;;;;;;19.02;59.65;97740.67;1815706;79;21706;-69
2022/06/20 01:13:57;;;;;;;4.55;1.72;;;;;;;18.96;59.93;97736.63;1815016;78;20908;-70
2022/06/20 01:16:28;;;;;;;4.08;2.17;;;;;;;18.91;60.12;97735.53;1815696;78;21227;-71
2022/06/20 01:18:55;;;;;;;5.95;2.00;;;;;;;18.91;60.23;97727.98;1815964;79;20912;-66
2022/06/20 01:21:33;;;;;;;6.17;2.08;;;;;;;18.89;60.41;97723.45;1816354;79;20937;-61
2022/06/20 01:24:23;;;;;;;4.97;1.65;;;;;;;18.85;60.72;97727.45;1815965;78;20845;-62
2022/06/20 01:27:19;;;;;;;3.75;1.72;;;;;;;18.84;60.89;97725.86;1816001;79;20829;-70
2022/06/20 01:29:47;;;;;;;4.87;1.77;;;;;;;18.76;61.18;97718.70;1816090;79;21290;-62
2022/06/20 01:32:13;;;;;;;4.37;1.75;;;;;;;18.68;61.71;97714.78;1804782;79;20904;-66
2022/06/20 01:34:40;;;;;;;2.90;1.65;;;;;;;18.58;62.22;97709.33;1815796;79;20869;-71
2022/06/20 01:37:25;;;;;;;2.77;1.90;;;;;;;18.48;62.67;97712.55;1815834;79;21442;-66
2022/06/20 01:39:55;;;;;;;8.05;2.40;;;;;;;18.35;63.09;97708.27;1815881;79;20884;-61
2022/06/20 01:42:23;;;;;;;3.15;1.80;;;;;;;18.20;63.85;97707.69;1815852;79;21302;-69
2022/06/20 01:47:54;;;;;;;3.98;1.80;;;;;;;17.91;65.14;97706.11;1816239;78;20995;-61
2022/06/20 01:50:20;;;;;;;3.27;2.00;;;;;;;17.82;65.52;97697.91;1816989;78;20888;-62
2022/06/20 01:52:46;;;;;;;5.83;2.10;;;;;;;17.78;65.93;97697.22;1815963;78;21008;-66
2022/06/20 01:55:17;;;;;;;3.77;1.90;;;;;;;17.78;66.38;97696.46;1815782;79;21060;-63
2022/06/20 01:57:46;;;;;;;3.95;2.00;;;;;;;17.76;66.56;97695.98;1816050;79;20908;-62
2022/06/20 02:00:20;;;;;;;4.10;2.15;;;;;;;17.71;66.98;97692.19;1815951;79;21063;-64
2022/06/20 02:02:55;;;;;;;3.83;1.90;;;;;;;17.65;67.21;97692.98;1816454;79;20877;-70
2022/06/20 02:05:26;;;;;;;9.35;2.00;;;;;;;17.60;67.49;97682.39;1815117;78;20908;-66
2022/06/20 02:07:53;;;;;;;4.12;2.00;;;;;;;17.52;67.86;97684.66;1815846;79;21044;-69
2022/06/20 02:10:25;;;;;;;5.30;1.80;;;;;;;17.45;67.89;97685.77;1815744;78;20881;-69
2022/06/20 02:12:51;;;;;;;6.20;1.95;;;;;;;17.42;68.01;97682.97;1815935;78;21353;-69
2022/06/20 02:15:22;;;;;;;4.80;1.98;;;;;;;17.38;68.12;97682.85;1815759;79;20912;-68
2022/06/20 02:17:51;;;;;;;5.03;1.80;;;;;;;17.34;68.53;97678.46;1815958;78;20869;-65
2022/06/20 02:28:11;;;;;;;3.87;1.92;;;;;;;17.24;69.50;97672.95;1816192;79;20873;-61
2022/06/20 02:30:38;;;;;;;5.67;1.80;;;;;;;17.25;69.80;97671.04;1815914;79;20911;-66
2022/06/20 02:33:13;;;;;;;3.52;1.90;;;;;;;17.24;69.86;97666.19;1815810;78;21092;-69
2022/06/20 02:35:41;;;;;;;4.25;2.05;;;;;;;17.23;69.86;97665.98;1815992;79;20899;-61
2022/06/20 02:38:08;;;;;;;3.15;2.00;;;;;;;17.22;69.93;97667.68;1815781;79;20908;-66
2022/06/20 02:40:41;;;;;;;4.70;2.00;;;;;;;17.20;70.03;97665.30;1815771;78;20952;-69
2022/06/20 02:43:21;;;;;;;3.30;1.77;;;;;;;17.17;70.12;97665.97;1816119;78;20924;-69
2022/06/20 02:45:47;;;;;;;4.53;1.75;;;;;;;17.13;70.36;97650.75;1815997;78;21093;-70
2022/06/20 02:48:16;;;;;;;2.92;1.67;;;;;;;17.09;70.67;97660.92;1815786;78;20869;-66
2022/06/20 02:50:53;;;;;;;3.33;2.00;;;;;;;17.07;70.89;97655.63;1815868;79;20947;-62
2022/06/20 02:53:34;;;;;;;4.72;1.92;;;;;;;17.05;71.27;97665.42;1815783;79;20888;-68
2022/06/20 02:56:01;;;;;;;4.80;2.12;;;;;;;17.04;71.54;97659.00;1815934;78;20892;-66
2022/06/20 02:58:31;;;;;;;5.60;2.08;;;;;;;17.03;71.69;97654.70;1815772;78;21223;-69
2022/06/20 03:01:20;;;;;;;4.35;2.22;;;;;;;17.04;71.62;97654.95;1815708;79;20944;-71
2022/06/20 03:03:49;;;;;;;7.42;2.42;;;;;;;17.06;71.57;97659.45;1816077;79;20952;-66
2022/06/20 03:06:32;;;;;;;6.67;3.42;;;;;;;17.03;71.60;97645.23;1826705;78;20908;-66
2022/06/20 03:08:58;;;;;;;7.00;3.47;;;;;;;17.01;71.54;97644.80;1827344;78;20880;-70
2022/06/20 03:11:28;;;;;;;8.70;3.70;;;;;;;17.03;71.51;97653.36;1827408;78;21088;-69
2022/06/20 03:13:57;;;;;;;12.98;3.20;;;;;;;17.02;71.66;97651.23;1827183;78;21518;-62
2022/06/20 03:16:23;;;;;;;9.05;3.27;;;;;;;17.02;71.70;97653.15;1827285;78;20983;-70
2022/06/20 03:18:50;;;;;;;7.80;3.37;;;;;;;17.05;71.70;97645.72;1827376;78;20912;-68
2022/06/20 03:21:20;;;;;;;6.75;3.62;;;;;;;17.11;71.72;97644.34;1827393;78;20884;-60
2022/06/20 03:23:47;;;;;;;9.93;4.42;;;;;;;17.16;71.66;97645.47;1827275;78;21151;-66
2022/06/20 03:26:18;;;;;;;6.45;3.20;;;;;;;17.20;71.65;97646.35;1827327;78;20908;-63
2022/06/20 03:28:45;;;;;;;8.88;3.08;;;;;;;17.26;71.55;97639.59;1827624;78;20912;-67
2022/06/20 03:31:12;;;;;;;9.88;3.05;;;;;;;17.31;71.34;97642.03;1827280;78;20884;-66
2022/06/20 03:33:39;;;;;;;9.58;3.25;;;;;;;17.34;71.19;97641.92;1827880;78;20951;-68
2022/06/20 03:36:13;;;;;;;6.28;2.72;;;;;;;17.36;71.21;97635.03;1827290;78;21090;-67
2022/06/20 03:38:42;;;;;;;7.35;3.00;;;;;;;17.40;71.22;97631.09;1827466;78;20896;-67
2022/06/20 03:41:09;;;;;;;6.45;2.67;;;;;;;17.46;71.27;97622.37;1827548;78;21380;-71
2022/06/20 03:43:36;;;;;;;7.72;2.50;;;;;;;17.50;71.16;97625.20;1827264;78;21035;-62
2022/06/20 03:46:17;;;;;;;5.25;2.83;;;;;;;17.53;71.22;97623.17;1809411;78;21537;-62
2022/06/20 03:48:49;;;;;;;7.92;3.20;;;;;;;17.58;71.23;97621.58;1810550;78;21158;-63
2022/06/20 03:51:24;;;;;;;8.13;2.92;;;;;;;17.64;71.25;97620.22;1827285;78;20900;-66
2022/06/20 03:54:01;;;;;;;7.53;3.22;;;;;;;17.68;71.15;97615.13;1827774;78;20904;-60
2022/06/20 03:56:33;;;;;;;9.78;3.30;;;;;;;17.74;71.25;97604.81;1827455;78;20868;-62
2022/06/20 03:59:12;;;;;;;7.08;3.27;;;;;;;17.78;71.19;97599.70;1826653;78;20844;-70
2022/06/20 04:01:57;;;;;;;5.75;3.30;;;;;;;17.84;71.20;97598.91;1827290;78;21234;-61
2022/06/20 04:04:29;;;;;;;10.85;3.58;;;;;;;17.90;71.08;97596.15;1826133;78;20998;-66
2022/06/20 04:07:01;;;;;;;8.85;4.15;;;;;;;17.98;70.98;97602.55;1815561;78;20955;-66
2022/06/20 04:12:42;;;;;;;;;;;;;;;18.13;70.80;97582.83;1818564;79;20924;-70
2022/06/20 04:15:14;;;;;;;13.18;4.53;;;;;;;18.22;70.62;97584.80;1815819;79;21065;-67
2022/06/20 04:20:52;;;;;;;8.30;3.22;;;;;;;18.32;70.24;97582.92;1815839;79;20865;-61
2022/06/20 04:23:26;;;;;;;13.35;3.30;;;;;;;18.39;69.78;97586.58;1815508;78;21438;-69
2022/06/20 04:26:01;;;;;;;8.35;2.98;;;;;;;18.45;69.89;97584.40;1802751;78;20976;-62
2022/06/20 04:28:45;;;;;;;8.13;2.40;;;;;;;18.50;69.85;97584.73;1815750;78;21239;-68
2022/06/20 04:31:39;;;;;;;9.15;2.12;;;;;;;18.56;69.72;97587.41;1815995;78;20865;-63
2022/06/20 04:34:34;;;;;;;7.40;2.20;;;;;;;18.62;69.55;97584.07;1798519;78;20963;-61
2022/06/20 04:37:27;;;;;;;7.58;2.12;;;;;;;18.73;69.20;97586.45;1816007;78;21447;-68
2022/06/20 04:40:17;;;;;;;8.05;2.20;;;;;;;18.83;68.69;97582.41;1781813;78;20920;-71
2022/06/20 04:42:49;;;;;;;5.65;2.30;;;;;;;18.94;68.62;97581.52;1810983;79;21043;-68
2022/06/20 04:45:31;;;;;;;6.92;2.02;;;;;;;19.04;68.51;97581.53;1815736;79;20956;-63
2022/06/20 04:48:06;;;;;;;6.65;2.08;;;;;;;19.13;67.92;97587.55;1816333;78;20951;-60
2022/06/20 04:50:33;;;;;;;;;;;;;;;19.22;67.88;97581.93;1818423;79;20845;-65
2022/06/20 04:53:05;;;;;;;6.58;2.20;;;;;;;19.31;67.63;97566.21;1815881;79;20072;-69
2022/06/20 04:55:33;;;;;;;5.67;2.25;;;;;;;19.38;66.76;97567.75;1815959;79;21773;-66
2022/06/20 04:58:04;;;;;;;5.67;2.12;;;;;;;19.46;67.00;97568.09;1815894;79;20830;-72
2022/06/20 05:00:41;;;;;;;6.97;2.22;;;;;;;19.54;66.47;97573.89;1815898;78;20930;-67
2022/06/20 05:03:12;;;;;;;6.92;2.20;;;;;;;19.63;65.50;97564.94;1816064;79;20833;-62
2022/06/20 05:05:42;;;;;;;11.97;2.67;;;;;;;19.73;65.41;97569.80;1807812;78;21422;-64
2022/06/20 05:08:12;;;;;;;6.65;2.10;;;;;;;19.84;65.33;97573.50;1827105;78;21066;-72
2022/06/20 05:10:50;;;;;;;7.35;2.25;;;;;;;19.94;64.44;97580.27;1827272;78;20907;-62
2022/06/20 05:13:26;;;;;;;5.65;2.05;;;;;;;20.00;64.66;97576.89;1827119;78;20892;-67
2022/06/20 05:15:52;;;;;;;6.03;2.20;;;;;;;20.08;63.66;97578.61;1825618;78;20915;-64
2022/06/20 05:18:39;;;;;;;7.90;2.12;;;;;;;20.18;63.69;97583.45;1827354;78;20853;-65
2022/06/20 05:21:17;;;;;;;5.10;2.00;;;;;;;20.26;63.73;97582.44;1827104;78;21860;-71
2022/06/20 05:23:50;;;;;;;12.07;2.20;;;;;;;20.35;63.39;97577.53;1826564;78;20951;-66
2022/06/20 05:26:26;;;;;;;4.72;2.08;;;;;;;20.45;62.92;97574.22;1827404;78;21450;-69
2022/06/20 05:28:54;;;;;;;4.90;1.77;;;;;;;20.56;63.01;97573.61;1827225;78;26376;-61
2022/06/20 05:31:32;;;;;;;2.62;1.90;;;;;;;20.65;62.40;97581.73;1824922;78;20982;-64
2022/06/20 05:35:57;;;;;;;4.40;1.85;;;;;;;20.87;62.33;97582.24;1845548;76;22719;-64
2022/06/20 05:38:38;;;;;;;6.00;1.90;;;;;;;20.91;61.81;97585.03;1807024;77;20979;-60
2022/06/20 05:41:07;;;;;;;7.25;2.00;;;;;;;21.01;61.85;97575.64;1818218;78;21219;-62
2022/06/20 05:43:33;;;;;;;5.05;2.27;;;;;;;21.13;61.59;97572.54;1818913;78;20998;-65
2022/06/20 05:46:14;;;;;;;7.30;2.00;;;;;;;21.22;62.00;97576.53;1788285;77;20935;-59
2022/06/20 05:48:48;;;;;;;3.92;1.87;;;;;;;21.33;62.18;97580.20;1806440;77;21423;-64
2022/06/20 05:51:17;;;;;;;7.60;2.20;;;;;;;21.45;61.10;97585.41;1819346;77;20955;-64
2022/06/20 05:53:59;;;;;;;7.97;2.10;;;;;;;21.55;60.12;97576.56;1823271;77;21258;-60
2022/06/20 05:56:37;;;;;;;6.95;1.98;;;;;;;21.65;59.12;97581.36;1813879;77;20942;-63
2022/06/20 05:59:04;;;;;;;5.58;2.05;;;;;;;21.75;58.70;97569.80;1819670;77;20990;-56
2022/06/20 06:01:34;;;;;;;5.15;2.10;;;;;;;21.83;58.81;97573.97;1759268;78;21053;-64
2022/06/20 06:04:10;;;;;;;7.80;2.08;;;;;;;21.94;58.86;97576.25;1805356;79;21086;-58
2022/06/20 06:06:45;;;;;;;;;;;;;;;22.04;58.31;97575.59;1798334;79;21713;-63
2022/06/20 06:09:25;;;;;;;5.05;2.05;;;;;;;22.15;58.08;97571.01;1812811;78;20105;-64
2022/06/20 06:12:05;;;;;;;3.12;1.77;;;;;;;22.26;57.83;97566.42;1814261;77;21531;-60
2022/06/20 06:14:39;;;;;;;10.08;2.08;;;;;;;22.35;57.26;97564.19;1813265;78;21539;-59
2022/06/20 06:17:14;;;;;;;5.03;2.00;;;;;;;22.44;57.40;97565.45;1806909;78;20981;-62
2022/06/20 06:19:48;;;;;;;4.80;1.87;;;;;;;22.51;57.46;97566.08;1812217;78;21592;-64
2022/06/20 06:22:23;;;;;;;3.92;1.90;;;;;;;22.62;57.90;97562.87;1771063;78;21115;-62
2022/06/20 06:24:58;;;;;;;4.83;1.75;;;;;;;22.71;57.76;97560.59;1812437;78;20980;-63
2022/06/20 06:27:30;;;;;;;7.20;2.15;;;;;;;22.80;57.07;97565.14;1806375;78;21476;-59
2022/06/20 06:30:09;;;;;;;5.55;1.92;;;;;;;22.87;55.92;97562.45;1802738;78;21091;-62
2022/06/20 06:32:45;;;;;;;4.90;1.77;;;;;;;22.95;55.50;97559.98;1814507;78;21217;-63
2022/06/20 06:35:24;;;;;;;4.28;1.72;;;;;;;23.04;55.67;97561.78;1798811;78;21001;-63
2022/06/20 06:38:04;;;;;;;5.60;1.87;;;;;;;23.13;55.71;97569.05;1808376;79;20980;-64
2022/06/20 06:40:54;;;;;;;5.17;1.80;;;;;;;23.20;55.75;97560.70;1805736;79;21536;-64
2022/06/20 06:43:38;;;;;;;6.35;1.90;;;;;;;23.27;55.03;97558.77;1791410;79;21119;-63
2022/06/20 06:46:13;;;;;;;7.15;1.82;;;;;;;23.35;55.36;97561.78;1804797;79;21254;-64
2022/06/20 06:49:08;;;;;;;5.15;1.80;;;;;;;23.44;54.84;97558.68;1800532;79;21374;-65
2022/06/20 06:51:46;;;;;;;5.00;1.75;;;;;;;23.51;54.86;97561.44;1803812;79;21496;-63
2022/06/20 06:54:46;;;;;;;3.25;1.82;;;;;;;23.57;54.26;97557.98;1798995;79;20985;-65
2022/06/20 06:57:44;;;;;;;5.40;1.82;;;;;;;23.68;54.83;97560.16;1791424;79;20919;-60
2022/06/20 07:00:21;;;;;;;5.65;1.80;;;;;;;23.78;54.31;97564.88;1807286;77;21469;-63
2022/06/20 07:03:04;;;;;;;4.67;1.72;;;;;;;23.89;53.92;97565.47;1785493;79;21047;-62
2022/06/20 07:05:41;;;;;;;4.90;1.50;;;;;;;24.01;52.62;97569.21;1805537;79;21681;-58
2022/06/20 07:08:20;;;;;;;4.45;1.70;;;;;;;24.14;52.40;97568.48;1805330;79;21021;-59
2022/06/20 07:11:00;;;;;;;5.58;1.45;;;;;;;24.24;52.38;97567.72;1799472;79;21040;-59
2022/06/20 07:14:06;;;;;;;8.18;1.75;;;;;;;24.37;52.38;97568.92;1803401;78;21199;-65
2022/06/20 07:16:54;;;;;;;7.62;1.27;;;;;;;24.51;50.30;97565.97;1797523;78;21006;-55
2022/06/20 07:19:24;;;;;;;3.67;1.40;;;;;;;24.63;51.18;97560.11;1806240;79;21089;-67
2022/06/20 07:21:52;;;;;;;1.85;1.20;;;;;;;24.75;49.97;97554.23;1798038;79;21073;-55
2022/06/20 07:24:26;;;;;;;2.55;1.50;;;;;;;24.84;49.23;97564.22;1807538;79;21045;-64
2022/06/20 07:27:07;;;;;;;5.05;1.52;;;;;;;24.91;48.61;97551.89;1806556;78;21227;-64
2022/06/20 07:29:46;;;;;;;7.45;1.60;;;;;;;25.01;49.22;97560.06;1807391;78;21038;-60
2022/06/20 07:32:19;;;;;;;2.60;1.12;;;;;;;25.17;48.73;97551.44;1801882;77;21450;-63
2022/06/20 07:34:55;;;;;;;5.12;1.40;;;;;;;25.17;48.73;97551.44;1803323;77;21071;-62
2022/06/20 07:37:34;;;;;;;5.10;1.65;;;;;;;25.34;47.72;97556.09;1800129;79;21465;-59
2022/06/20 07:40:27;;;;;;;3.10;1.40;;;;;;;25.34;47.72;97556.09;1797500;78;21136;-63
2022/06/20 07:43:21;;;;;;;6.78;1.50;;;;;;;25.41;48.02;97559.39;1799787;79;20949;-61
2022/06/20 07:46:00;;;;;;;4.12;1.20;;;;;;;25.49;47.92;97552.13;1725618;80;21493;-62
2022/06/20 07:48:38;;;;;;;4.05;1.47;;;;;;;25.60;45.82;97552.09;1792363;79;20993;-56
2022/06/20 07:51:21;;;;;;;4.42;1.32;;;;;;;25.70;45.15;97553.98;1796790;79;21511;-60
2022/06/20 07:54:13;;;;;;;3.35;1.17;;;;;;;25.76;45.55;97549.08;1798930;79;21448;-65
2022/06/20 07:56:50;;;;;;;5.03;1.30;;;;;;;25.88;44.66;97542.93;1785728;78;21118;-62
2022/06/20 07:59:22;;;;;;;4.78;1.35;;;;;;;25.94;44.78;97539.94;1772762;80;21122;-63
2022/06/20 08:02:25;;;;;;;5.17;1.30;;;;;;;26.01;44.25;97537.94;1796304;77;21623;-58
2022/06/20 08:04:59;;;;;;;4.87;1.40;;;;;;;26.11;43.38;97543.20;1800789;79;20981;-59
2022/06/20 08:07:46;;;;;;;5.22;1.70;;;;;;;26.19;43.41;97542.73;1794444;79;21021;-64
2022/06/20 08:10:41;;;;;;;5.45;1.70;;;;;;;26.28;44.53;97529.95;1796089;78;21510;-63
2022/06/20 08:13:46;;;;;;;3.75;1.30;;;;;;;26.38;43.65;97542.20;1807426;78;21432;-59
2022/06/20 08:16:27;;;;;;;5.08;1.20;;;;;;;26.44;43.17;97545.30;1791673;79;20981;-64
2022/06/20 08:19:00;;;;;;;2.83;1.10;;;;;;;26.46;41.25;97545.67;1720727;82;21153;-63
2022/06/20 08:21:47;;;;;;;3.02;1.27;;;;;;;26.47;40.91;97541.77;1726478;82;20975;-65
2022/06/20 08:24:33;;;;;;;3.83;1.50;;;;;;;26.52;40.44;97535.05;1765912;79;20978;-62
2022/06/20 08:27:11;;;;;;;2.83;1.10;;;;;;;26.53;40.86;97540.13;1774046;79;20973;-65
2022/06/20 08:29:49;;;;;;;5.92;1.20;;;;;;;26.58;41.52;97538.91;1761729;79;20953;-61
2022/06/20 08:32:50;;;;;;;5.75;1.30;;;;;;;26.64;41.41;97542.80;1773351;79;21135;-61
2022/06/20 08:35:48;;;;;;;4.15;1.40;;;;;;;26.66;40.03;97537.67;1764078;78;21262;-62
2022/06/20 08:38:39;;;;;;;4.22;1.22;;;;;;;26.70;40.69;97532.33;1715610;81;21077;-60
2022/06/20 08:41:32;;;;;;;4.60;1.15;;;;;;;26.75;41.52;97522.31;1757066;79;21525;-59
2022/06/20 08:44:28;;;;;;;3.22;1.17;;;;;;;26.87;41.55;97514.93;1748168;81;21112;-60
2022/06/20 08:47:37;;;;;;;4.12;1.30;;;;;;;26.96;41.06;97514.44;1759223;81;21643;-59
2022/06/20 08:51:02;;;;;;;2.58;1.37;;;;;;;27.02;39.52;97509.45;1739070;79;21021;-58
2022/06/20 08:54:02;;;;;;;3.33;1.05;;;;;;;27.13;39.77;97515.59;1762954;79;20942;-58
2022/06/20 08:57:01;;;;;;;2.98;1.30;;;;;;;27.21;38.44;97515.52;1752886;79;21036;-62
2022/06/20 08:59:59;;;;;;;5.25;1.57;;;;;;;27.24;38.53;97510.58;1725843;82;21097;-65
2022/06/20 09:03:02;;;;;;;3.72;1.62;;;;;;;27.30;38.60;97502.84;1721892;82;21397;-63
2022/06/20 09:06:07;;;;;;;4.53;2.00;;;;;;;27.39;39.54;97505.89;1748104;81;20951;-60
2022/06/20 09:09:05;;;;;;;4.55;2.30;;;;;;;27.54;39.56;97500.99;1756830;81;20980;-66
2022/06/20 09:12:05;;;;;;;5.85;2.87;;;;;;;27.61;38.06;97492.65;1750741;81;20983;-64
2022/06/20 09:14:58;;;;;;;5.28;1.60;;;;;;;27.63;39.37;97487.51;1697296;81;21126;-61
2022/06/20 09:18:03;;;;;;;4.62;1.90;;;;;;;27.68;38.97;97473.29;1756704;81;21079;-61
2022/06/20 09:21:20;;;;;;;4.55;2.05;;;;;;;27.79;40.29;97481.57;1738535;81;21297;-63
2022/06/20 09:24:28;;;;;;;5.30;1.60;;;;;;;27.89;38.60;97481.23;1744367;81;21015;-62
2022/06/20 09:27:08;;;;;;;2.67;1.17;;;;;;;27.97;37.95;97482.70;1749071;81;21123;-58
2022/06/20 09:30:07;;;;;;;3.10;1.37;;;;;;;28.02;37.93;97485.60;1755200;81;21486;-60
2022/06/20 09:33:11;;;;;;;3.33;1.20;;;;;;;28.08;37.86;97488.84;1733576;81;21104;-64
2022/06/20 09:36:07;;;;;;;1.30;1.02;;;;;;;28.12;36.69;97486.80;1743392;79;21642;-59
2022/06/20 09:38:50;;;;;;;;;;;;;;;28.16;36.76;97482.03;1734711;81;21243;-60
2022/06/20 09:41:31;;;;;;;4.67;1.62;;;;;;;28.19;37.24;97475.67;1747045;81;20156;-61
2022/06/20 09:44:44;;;;;;;2.75;1.40;;;;;;;28.26;37.86;97486.57;1755291;81;21071;-66
2022/06/20 09:47:38;;;;;;;3.40;1.90;;;;;;;28.33;37.63;97476.06;1735707;80;20967;-60
2022/06/20 09:50:41;;;;;;;4.20;1.57;;;;;;;28.37;37.58;97472.64;1755775;80;21019;-60
2022/06/20 09:54:08;;;;;;;;;;;;;;;;;;;;;
2022/06/20 09:56:53;;;;;;;3.17;1.20;;;;;;;28.52;38.19;97475.34;1666061;85;21075;-57
2022/06/20 09:59:35;;;;;;;3.65;1.35;;;;;;;28.60;37.58;97469.11;1756273;81;21423;-68
2022/06/20 10:02:27;;;;;;;4.58;1.45;;;;;;;28.60;37.37;97477.38;1751663;81;21087;-63
2022/06/20 10:05:14;;;;;;;6.85;1.20;;;;;;;28.60;37.99;97470.48;1753197;81;21141;-62
2022/06/20 10:08:22;;;;;;;2.72;1.20;;;;;;;28.63;36.78;97467.69;1754837;80;21522;-63
2022/06/20 10:11:13;;;;;;;2.98;1.30;;;;;;;28.69;37.58;97466.61;1750627;81;20921;-62
2022/06/20 10:14:13;;;;;;;3.22;1.20;;;;;;;28.83;38.70;97463.59;1755228;81;21959;-61
2022/06/20 10:17:07;;;;;;;4.75;1.20;;;;;;;28.94;36.72;97466.91;1750450;81;21088;-64
2022/06/20 10:20:02;;;;;;;4.35;1.55;;;;;;;28.97;36.28;97468.83;1751497;81;21751;-62
2022/06/20 10:22:59;;;;;;;4.25;1.40;;;;;;;28.95;36.00;97460.96;1756846;81;20890;-60
2022/06/20 10:26:06;;;;;;;3.52;1.30;;;;;;;28.91;35.83;97457.51;1756369;81;20966;-61
2022/06/20 10:28:47;;;;;;;3.12;1.32;;;;;;;28.90;37.31;97452.42;1755432;81;21580;-64
2022/06/20 10:31:43;;;;;;;5.12;1.40;;;;;;;28.94;37.15;97442.88;1746793;81;21075;-63
2022/06/20 10:34:47;;;;;;;4.58;1.37;;;;;;;29.04;38.36;97432.84;1753888;81;21277;-62
2022/06/20 10:37:44;;;;;;;5.30;1.50;;;;;;;29.18;38.46;97432.59;1758850;81;21008;-64
2022/06/20 10:40:38;;;;;;;3.55;1.30;;;;;;;29.27;36.54;97428.65;1754715;81;20965;-61
2022/06/20 10:43:21;;;;;;;4.50;1.20;;;;;;;29.33;35.35;97433.04;1750873;81;21132;-68
2022/06/20 10:45:57;;;;;;;4.83;1.10;;;;;;;29.30;35.49;97428.40;1754679;81;21536;-65
2022/06/20 10:48:36;;;;;;;4.83;1.07;;;;;;;29.28;34.85;97419.78;1734236;81;21127;-62
2022/06/20 10:51:24;;;;;;;4.85;1.40;;;;;;;29.28;34.47;97421.91;1755889;81;20988;-66
2022/06/20 10:54:17;;;;;;;4.70;1.20;;;;;;;29.28;35.67;97419.16;1751695;81;21016;-57
2022/06/20 10:57:25;;;;;;;2.12;1.00;;;;;;;29.29;35.18;97413.05;1758677;81;20985;-62
2022/06/20 11:00:10;;;;;;;3.02;1.25;;;;;;;29.27;33.32;97410.72;1758511;81;20978;-62
2022/06/20 11:03:19;;;;;;;2.87;1.30;;;;;;;29.28;33.90;97399.09;1758591;81;21117;-60
2022/06/20 11:05:57;;;;;;;6.22;1.02;;;;;;;29.30;34.41;97392.55;1758411;81;20927;-60
2022/06/20 11:08:36;;;;;;;7.42;1.10;;;;;;;29.35;34.42;97381.77;1754620;80;20940;-66
2022/06/20 11:11:44;;;;;;;5.08;1.40;;;;;;;29.34;34.73;97388.50;1750278;81;20994;-66
2022/06/20 11:14:16;;;;;;;4.17;1.35;;;;;;;29.33;34.45;97377.28;1748137;80;21123;-61
2022/06/20 11:17:04;;;;;;;4.50;1.20;;;;;;;29.38;34.87;97378.16;1730689;83;21260;-62
2022/06/20 11:19:54;;;;;;;7.35;1.30;;;;;;;29.44;35.59;97372.30;1735175;82;21035;-60
2022/06/20 11:22:43;;;;;;;3.87;1.20;;;;;;;29.53;35.18;97373.10;1747230;82;20960;-62
2022/06/20 11:25:27;;;;;;;6.47;1.55;;;;;;;29.59;34.33;97368.02;1747433;82;21027;-64
2022/06/20 11:28:23;;;;;;;5.15;1.35;;;;;;;29.67;34.25;97369.41;1765213;80;21031;-67
2022/06/20 11:31:30;;;;;;;6.12;1.30;;;;;;;29.81;33.65;97366.15;1760477;81;21127;-62
2022/06/20 11:34:18;;;;;;;3.58;1.20;;;;;;;29.97;33.26;97363.37;1758355;81;28204;-64
2022/06/20 11:37:04;;;;;;;3.45;1.10;;;;;;;30.21;32.98;97367.49;1708884;81;21459;-60
2022/06/20 11:39:51;;;;;;;3.20;1.05;;;;;;;30.49;31.92;97359.86;1750449;81;21388;-62
2022/06/20 11:42:32;;;;;;;2.42;1.20;;;;;;;30.70;31.00;97355.13;1754810;81;20893;-62
2022/06/20 11:45:15;;;;;;;4.10;1.22;;;;;;;30.87;30.93;97351.08;1760992;81;21123;-62
2022/06/20 11:48:16;;;;;;;2.95;1.10;;;;;;;31.05;32.45;97345.83;1705262;81;20968;-65
2022/06/20 11:51:13;;;;;;;4.40;1.20;;;;;;;31.28;32.04;97349.51;1729491;83;21039;-64
2022/06/20 11:54:01;;;;;;;2.70;1.00;;;;;;;31.48;30.70;97347.31;1729689;81;20984;-65
2022/06/20 11:56:50;;;;;;;4.70;1.37;;;;;;;31.66;30.78;97348.89;1679862;82;21565;-62
2022/06/20 11:59:28;;;;;;;4.67;1.10;;;;;;;31.83;30.95;97345.39;1748148;81;22162;-61
2022/06/20 12:02:35;;;;;;;4.35;1.60;;;;;;;31.96;30.45;97348.31;1701349;81;20977;-58
2022/06/20 12:05:16;;;;;;;8.08;1.10;;;;;;;32.00;29.94;97340.69;1730581;83;20897;-67
2022/06/20 12:08:22;;;;;;;6.62;1.17;;;;;;;32.02;29.63;97334.08;1728610;83;21075;-60
2022/06/20 12:10:56;;;;;;;3.35;1.00;;;;;;;32.08;29.96;97337.82;1730247;83;21107;-61
2022/06/20 12:13:52;;;;;;;3.67;1.20;;;;;;;32.18;30.34;97336.69;1731297;83;21127;-64
2022/06/20 12:17:03;;;;;;;4.75;1.85;;;;;;;32.27;29.00;97342.91;1730655;83;20936;-61
2022/06/20 12:25:56;;;;;;;1.42;1.00;;;;;;;32.65;30.03;97325.53;1747766;81;21135;-67
2022/06/20 12:28:27;;;;;;;5.62;1.20;;;;;;;32.82;29.71;97317.78;1704442;81;21133;-60
2022/06/20 12:31:05;;;;;;;6.35;1.90;;;;;;;33.00;29.46;97313.72;1758772;81;20973;-58
2022/06/20 12:33:32;;;;;;;5.47;1.60;;;;;;;33.20;29.06;97310.00;1751605;81;21123;-59
2022/06/20 12:36:04;;;;;;;2.20;1.10;;;;;;;33.34;28.43;97296.95;1745710;81;20865;-60
2022/06/20 12:38:38;;;;;;;3.95;1.40;;;;;;;33.43;29.07;97292.82;1745458;80;20963;-63
2022/06/20 12:41:13;;;;;;;4.12;1.07;;;;;;;33.50;28.19;97293.92;1730856;83;21341;-60
2022/06/20 12:44:16;;;;;;;3.80;1.27;;;;;;;33.52;28.50;97283.12;1730048;83;20984;-59
2022/06/20 12:47:10;;;;;;;3.58;1.30;;;;;;;33.62;28.71;97293.05;1730748;83;20941;-59
2022/06/20 12:50:02;;;;;;;3.80;1.40;;;;;;;33.61;28.61;97274.84;1730334;83;20988;-63
2022/06/20 12:52:46;;;;;;;5.60;1.10;;;;;;;33.65;28.85;97276.88;1742711;79;20966;-58
2022/06/20 12:55:41;;;;;;;3.62;1.37;;;;;;;33.78;27.91;97262.09;1802721;79;21249;-60
2022/06/20 12:58:20;;;;;;;3.00;1.25;;;;;;;33.68;28.37;97259.27;1803289;79;20851;-62
2022/06/20 13:00:58;;;;;;;2.47;1.10;;;;;;;33.62;28.27;97257.58;1803592;79;20878;-61
2022/06/20 13:03:45;;;;;;;3.30;1.05;;;;;;;33.71;28.99;97256.20;1802701;79;20903;-59
2022/06/20 13:09:46;;;;;;;4.17;1.12;;;;;;;33.91;28.78;97262.70;1802296;79;21222;-60